Time;durP1;ratioP1;P1;durP2;ratioP2;P2;SDS_P1;SDS_P2;PMS_P1;PMS_P2;Temp;Humidity;BMP_temperature;BMP_pressure;BME280_temperature;BME280_humidity;BME280_pressure;Samples;Min_cycle;Max_cycle;Signal;HPM_P1;HPM_P2
2021/12/03 00:00:39;;;;;;;41.50;23.60;;;;;;;2.13;81.94;98178.11;106121;1313;138113;-65
2021/12/03 00:03:06;;;;;;;43.40;22.30;;;;;;;2.10;81.97;98180.73;106305;1313;22401;-65
2021/12/03 00:05:33;;;;;;;38.80;21.10;;;;;;;2.06;82.06;98181.23;106183;1316;138267;-65
2021/12/03 00:08:00;;;;;;;39.70;21.50;;;;;;;2.03;81.99;98180.73;106269;1315;22462;-65
2021/12/03 00:10:27;;;;;;;35.00;21.00;;;;;;;2.01;82.09;98180.28;106297;1316;23529;-65
2021/12/03 00:12:54;;;;;;;35.50;20.30;;;;;;;2.00;82.12;98178.27;106174;1316;138482;-65
2021/12/03 00:15:23;;;;;;;32.10;18.40;;;;;;;1.96;81.97;98180.50;106336;1316;22435;-65
2021/12/03 00:17:50;;;;;;;31.80;19.90;;;;;;;1.94;82.11;98178.13;106073;1316;138767;-65
2021/12/03 00:20:17;;;;;;;;;;;;;;;1.93;82.23;98176.27;106340;1316;22496;-65
2021/12/03 00:22:45;;;;;;;32.60;16.80;;;;;;;1.92;82.24;98176.40;106082;1313;23309;-65
2021/12/03 00:25:12;;;;;;;35.20;18.10;;;;;;;1.91;82.50;98176.08;106209;1315;138002;-66
2021/12/03 00:27:39;;;;;;;30.80;19.80;;;;;;;1.90;82.56;98178.40;106269;1315;23280;-66
2021/12/03 00:30:07;;;;;;;32.60;20.50;;;;;;;1.89;82.64;98176.19;106204;1315;139391;-66
2021/12/03 00:32:34;;;;;;;29.50;18.70;;;;;;;1.91;83.03;98172.69;106286;1315;22465;-66
2021/12/03 00:35:01;;;;;;;30.80;19.30;;;;;;;1.93;82.91;98177.45;106278;1315;22464;-66
2021/12/03 00:37:27;;;;;;;;;;;;;;;1.94;83.16;98174.09;106225;1315;138493;-66
2021/12/03 00:39:54;;;;;;;35.20;19.60;;;;;;;1.96;83.29;98171.45;106303;1315;23767;-66
2021/12/03 00:42:21;;;;;;;27.90;17.80;;;;;;;1.98;83.32;98170.25;106159;1315;137991;-66
2021/12/03 00:44:53;;;;;;;27.30;16.70;;;;;;;2.00;83.34;98163.48;106297;1315;23250;-66
2021/12/03 00:47:20;;;;;;;32.10;20.50;;;;;;;2.01;83.38;98165.88;106179;1316;22506;-61
2021/12/03 00:49:47;;;;;;;31.30;18.80;;;;;;;2.03;83.45;98160.85;106135;1315;137811;-61
2021/12/03 00:52:14;;;;;;;32.00;19.60;;;;;;;2.05;83.60;98164.15;105172;1322;22490;-61
2021/12/03 00:54:41;;;;;;;;;;;;;;;2.06;83.61;98163.51;106138;1315;138045;-61
2021/12/03 00:57:08;;;;;;;24.60;14.70;;;;;;;2.09;83.64;98167.42;106238;1316;22547;-61
2021/12/03 00:59:34;;;;;;;25.30;17.20;;;;;;;2.11;83.71;98168.17;106028;1315;139324;-61
2021/12/03 01:02:01;;;;;;;29.70;17.00;;;;;;;2.13;83.69;98167.15;105378;1315;22525;-61
2021/12/03 01:04:29;;;;;;;29.30;16.60;;;;;;;2.15;83.53;98174.77;106306;1315;23236;-61
2021/12/03 01:06:55;;;;;;;29.00;17.20;;;;;;;2.17;83.46;98173.77;106181;1315;138420;-61
2021/12/03 01:09:22;;;;;;;32.70;16.90;;;;;;;2.19;83.47;98174.99;106200;1315;24734;-61
2021/12/03 01:11:49;;;;;;;25.30;16.10;;;;;;;2.19;83.22;98168.92;106104;1315;138138;-61
2021/12/03 01:14:16;;;;;;;26.70;14.80;;;;;;;2.18;83.13;98166.80;106331;1315;22400;-61
2021/12/03 01:16:43;;;;;;;24.70;16.10;;;;;;;2.16;82.96;98164.37;106319;1315;22425;-65
2021/12/03 01:19:10;;;;;;;27.20;16.30;;;;;;;2.14;82.91;98162.51;106184;1315;138655;-65
2021/12/03 01:21:38;;;;;;;30.10;16.90;;;;;;;2.12;82.83;98160.80;106333;1315;22505;-65
2021/12/03 01:24:05;;;;;;;29.00;16.80;;;;;;;2.10;82.78;98156.29;106095;1315;139665;-65
2021/12/03 01:26:34;;;;;;;28.30;16.80;;;;;;;2.08;82.80;98152.64;106322;1316;22414;-66
2021/12/03 01:29:01;;;;;;;27.20;16.10;;;;;;;2.07;83.04;98147.63;106313;1315;23365;-65
2021/12/03 01:31:28;;;;;;;31.00;18.40;;;;;;;2.07;83.05;98147.02;106214;1316;138366;-65
2021/12/03 01:33:54;;;;;;;34.70;20.10;;;;;;;2.08;83.04;98145.77;106296;1316;22361;-65
2021/12/03 01:36:21;;;;;;;30.80;18.50;;;;;;;2.10;83.31;98148.60;106191;1315;137952;-65
2021/12/03 01:38:48;;;;;;;34.60;18.50;;;;;;;2.13;83.18;98145.50;106304;1315;22487;-65
2021/12/03 01:41:15;;;;;;;35.30;19.80;;;;;;;2.15;83.13;98146.17;106339;1316;22532;-65
2021/12/03 01:43:44;;;;;;;28.70;17.70;;;;;;;2.16;83.17;98144.44;106221;1316;138372;-65
2021/12/03 01:46:11;;;;;;;31.20;18.50;;;;;;;2.18;82.97;98141.17;106286;1315;22393;-66
2021/12/03 01:48:39;;;;;;;32.20;17.40;;;;;;;2.19;83.01;98138.02;106215;1315;137969;-65
2021/12/03 01:51:06;;;;;;;32.00;17.10;;;;;;;2.20;82.98;98136.83;106181;1316;23333;-66
2021/12/03 01:53:35;;;;;;;33.60;17.20;;;;;;;2.23;82.83;98136.61;106090;1316;140108;-66
2021/12/03 01:56:06;;;;;;;36.30;19.30;;;;;;;2.26;82.83;98133.65;104865;1315;23113;-61
2021/12/03 01:58:34;;;;;;;30.30;17.70;;;;;;;2.26;82.78;98130.92;106280;1315;23328;-61
2021/12/03 02:01:02;;;;;;;32.10;19.00;;;;;;;2.24;82.50;98132.61;106255;1315;138895;-62
2021/12/03 02:03:32;;;;;;;29.20;18.10;;;;;;;2.19;82.32;98136.25;106299;1315;23118;-61
2021/12/03 02:05:59;;;;;;;40.20;22.10;;;;;;;2.17;82.38;98133.46;106056;1318;139397;-61
2021/12/03 02:08:26;;;;;;;;;;;;;;;2.15;82.29;98130.88;105050;1318;22469;-60
2021/12/03 02:10:53;;;;;;;52.30;24.80;;;;;;;2.15;82.37;98128.35;106121;1314;23313;-61
2021/12/03 02:13:20;;;;;;;33.70;21.20;;;;;;;2.15;82.62;98124.10;106191;1315;139229;-61
2021/12/03 02:15:46;;;;;;;35.30;21.60;;;;;;;2.16;82.82;98119.06;106305;1315;22585;-62
2021/12/03 02:18:13;;;;;;;69.40;32.50;;;;;;;2.19;82.85;98130.77;106103;1315;139743;-61
2021/12/03 02:20:44;;;;;;;73.70;35.40;;;;;;;2.19;82.78;98128.45;104600;1320;1177658;-61
2021/12/03 02:23:11;;;;;;;74.80;32.20;;;;;;;2.20;82.76;98136.86;106290;1315;22383;-61
2021/12/03 02:25:38;;;;;;;42.70;23.60;;;;;;;2.22;82.94;98134.17;106211;1315;138407;-65
2021/12/03 02:28:04;;;;;;;;;;;;;;;2.24;82.83;98141.46;106295;1315;23342;-66
2021/12/03 02:30:31;;;;;;;27.80;16.40;;;;;;;2.24;82.74;98143.29;106182;1315;124266;-65
2021/12/03 02:32:58;;;;;;;32.30;18.10;;;;;;;2.23;82.85;98142.73;106332;1316;22640;-66
2021/12/03 02:35:25;;;;;;;;;;;;;;;2.22;82.97;98132.45;106321;1315;22492;-65
2021/12/03 02:37:51;;;;;;;26.60;16.50;;;;;;;2.21;82.81;98126.41;106049;1315;123932;-66
2021/12/03 02:40:19;;;;;;;32.70;19.50;;;;;;;2.19;82.64;98120.18;106117;1316;23210;-65
2021/12/03 02:42:46;;;;;;;35.30;21.20;;;;;;;2.17;82.79;98115.27;106182;1316;139219;-65
2021/12/03 02:45:14;;;;;;;35.90;20.80;;;;;;;2.16;82.87;98106.38;106324;1314;22413;-66
2021/12/03 02:47:40;;;;;;;40.10;21.40;;;;;;;2.16;82.96;98092.58;106181;1314;139064;-65
2021/12/03 02:50:08;;;;;;;35.20;19.40;;;;;;;2.16;83.01;98090.64;106308;1316;22276;-65
2021/12/03 02:52:35;;;;;;;27.20;17.80;;;;;;;2.15;83.04;98087.14;106213;1316;23259;-65
2021/12/03 02:55:02;;;;;;;;;;;;;;;2.16;83.09;98085.42;106213;1315;137932;-65
2021/12/03 02:57:29;;;;;;;28.40;16.50;;;;;;;2.17;83.09;98081.50;106290;1316;22399;-66
2021/12/03 02:59:56;;;;;;;;;;;;;;;2.18;83.26;98076.59;106215;1313;138800;-65
2021/12/03 03:02:22;;;;;;;25.80;15.70;;;;;;;2.21;83.27;98072.28;106293;1314;22371;-65
2021/12/03 03:04:52;;;;;;;30.20;18.40;;;;;;;2.22;83.27;98069.08;106210;1315;22505;-65
2021/12/03 03:07:19;;;;;;;32.50;19.60;;;;;;;2.24;83.13;98069.66;106082;1316;138012;-65
2021/12/03 03:09:46;;;;;;;30.10;17.20;;;;;;;2.25;83.14;98066.45;106292;1315;22455;-66
2021/12/03 03:12:13;;;;;;;29.80;16.80;;;;;;;2.25;83.03;98065.88;106075;1317;138844;-65
2021/12/03 03:14:50;;;;;;;26.00;17.00;;;;;;;2.25;83.00;98066.90;106255;1316;22515;-66
2021/12/03 03:17:17;;;;;;;;;;;;;;;2.25;83.02;98062.98;106307;1316;22477;-65
2021/12/03 03:19:44;;;;;;;27.60;15.70;;;;;;;2.25;83.04;98062.11;106110;1316;125006;-65
2021/12/03 03:22:10;;;;;;;25.20;16.90;;;;;;;2.24;82.87;98062.09;106232;1317;22558;-65
2021/12/03 03:24:37;;;;;;;23.90;15.80;;;;;;;2.25;82.95;98062.32;106162;1315;138136;-65
2021/12/03 03:27:04;;;;;;;26.70;16.50;;;;;;;2.26;82.86;98056.64;105605;1316;22468;-65
2021/12/03 03:29:31;;;;;;;26.40;16.30;;;;;;;2.26;82.90;98049.08;106088;1315;139278;-62
2021/12/03 03:31:58;;;;;;;27.80;16.60;;;;;;;2.28;82.93;98043.00;106135;1317;23224;-66
2021/12/03 03:34:25;;;;;;;29.20;17.30;;;;;;;2.30;82.81;98036.63;106197;1315;22415;-66
2021/12/03 03:36:52;;;;;;;29.90;17.00;;;;;;;2.32;82.64;98025.40;106103;1315;137995;-66
2021/12/03 03:39:20;;;;;;;26.00;17.30;;;;;;;2.32;82.49;98025.25;106120;1315;23408;-65
2021/12/03 03:41:46;;;;;;;27.40;17.20;;;;;;;2.33;82.31;98035.42;106092;1315;138202;-65
2021/12/03 03:44:16;;;;;;;34.40;20.60;;;;;;;2.33;82.24;98048.98;106281;1315;22456;-66
2021/12/03 03:46:43;;;;;;;37.60;22.20;;;;;;;2.30;82.01;98046.52;106298;1319;22531;-66
2021/12/03 03:49:10;;;;;;;38.40;21.30;;;;;;;2.25;81.80;98043.84;106192;1315;138094;-66
2021/12/03 03:51:37;;;;;;;36.60;21.70;;;;;;;2.21;81.65;98034.58;106280;1315;23159;-66
2021/12/03 03:54:04;;;;;;;36.50;20.30;;;;;;;2.17;81.65;98031.77;106152;1315;138144;-66
2021/12/03 03:56:31;;;;;;;48.80;25.00;;;;;;;2.15;81.68;98024.97;106309;1315;23154;-66
2021/12/03 03:58:58;;;;;;;43.30;23.10;;;;;;;2.13;81.75;98025.14;106295;1316;22253;-66
2021/12/03 04:01:24;;;;;;;30.20;18.20;;;;;;;2.10;81.88;98025.90;106165;1315;140363;-66
2021/12/03 04:03:52;;;;;;;23.60;15.50;;;;;;;2.09;81.90;98029.35;106294;1315;22551;-66
2021/12/03 04:06:19;;;;;;;27.90;16.50;;;;;;;2.07;81.98;98029.38;106184;1315;138071;-66
2021/12/03 04:08:46;;;;;;;;;;;;;;;2.06;82.02;98019.94;106298;1316;22477;-66
2021/12/03 04:11:14;;;;;;;27.50;15.10;;;;;;;2.03;82.33;98015.33;106288;1315;22465;-66
2021/12/03 04:13:41;;;;;;;27.40;15.80;;;;;;;2.02;82.30;98017.40;106170;1316;138083;-66
2021/12/03 04:16:07;;;;;;;;;;;;;;;2.01;82.40;98020.35;106329;1315;22477;-66
2021/12/03 04:18:35;;;;;;;26.40;15.30;;;;;;;2.02;82.58;98018.69;106188;1314;126134;-66
2021/12/03 04:21:01;;;;;;;26.60;16.00;;;;;;;2.03;82.76;98017.79;106314;1316;23539;-66
2021/12/03 04:23:28;;;;;;;28.30;16.80;;;;;;;2.04;82.90;98006.46;106239;1315;23610;-65
2021/12/03 04:25:55;;;;;;;26.50;16.80;;;;;;;2.06;82.97;98005.11;106199;1315;138749;-65
2021/12/03 04:28:22;;;;;;;27.80;16.30;;;;;;;2.07;82.99;98014.54;106173;1315;22461;-65
2021/12/03 04:30:50;;;;;;;63.20;38.20;;;;;;;2.09;82.86;98016.73;106183;1315;138471;-65
2021/12/03 04:33:17;;;;;;;30.10;20.00;;;;;;;2.12;83.04;98017.96;106278;1313;22494;-66
2021/12/03 04:35:43;;;;;;;27.10;17.20;;;;;;;2.14;83.27;98018.06;106173;1315;138453;-65
2021/12/03 04:38:10;;;;;;;25.30;16.40;;;;;;;2.15;83.23;98024.59;106290;1315;23194;-65
2021/12/03 04:40:38;;;;;;;24.10;14.20;;;;;;;2.19;83.35;98031.56;106274;1315;23357;-65
2021/12/03 04:43:05;;;;;;;23.20;13.20;;;;;;;2.22;83.13;98029.86;106111;1315;138055;-65
2021/12/03 04:45:32;;;;;;;21.90;14.40;;;;;;;2.24;83.12;98023.23;106283;1315;22466;-66
2021/12/03 04:48:00;;;;;;;28.00;15.00;;;;;;;2.27;83.12;98027.92;106214;1315;138775;-66
2021/12/03 04:50:29;;;;;;;23.30;14.70;;;;;;;2.30;83.15;98034.70;106287;1315;22463;-66
2021/12/03 04:52:56;;;;;;;23.90;15.10;;;;;;;2.32;83.10;98028.78;106315;1315;22467;-66
2021/12/03 04:55:23;;;;;;;25.30;15.40;;;;;;;2.33;83.00;98026.66;105531;1316;138123;-66
2021/12/03 04:57:50;;;;;;;;;;;;;;;2.31;82.94;98016.11;106309;1315;22490;-66
2021/12/03 05:00:18;;;;;;;23.60;15.10;;;;;;;2.32;82.97;98005.10;106202;1315;126639;-66
2021/12/03 05:02:45;;;;;;;25.90;14.50;;;;;;;2.33;83.02;98001.94;106287;1315;22388;-66
2021/12/03 05:05:12;;;;;;;24.60;15.30;;;;;;;2.33;82.97;98002.44;106174;1315;23008;-60
2021/12/03 05:10:08;;;;;;;29.20;15.60;;;;;;;2.33;82.87;97990.92;105671;1319;23655;-66
2021/12/03 05:12:34;;;;;;;24.70;14.90;;;;;;;2.33;82.89;97981.64;106195;1315;137982;-65
2021/12/03 05:15:21;;;;;;;25.70;14.70;;;;;;;2.31;82.82;97970.27;106236;1315;22442;-66
2021/12/03 05:17:48;;;;;;;26.10;16.40;;;;;;;2.30;82.76;97963.16;106176;1316;140558;-64
2021/12/03 05:20:14;;;;;;;26.40;15.60;;;;;;;2.30;82.89;97957.90;106315;1315;22426;-64
2021/12/03 05:22:41;;;;;;;24.40;14.50;;;;;;;2.30;82.95;97948.33;106329;1316;22436;-64
2021/12/03 05:25:08;;;;;;;22.40;13.90;;;;;;;2.30;82.98;97937.41;106175;1315;138030;-64
2021/12/03 05:27:35;;;;;;;23.40;13.20;;;;;;;2.30;83.17;97923.66;106301;1316;22462;-66
2021/12/03 05:30:02;;;;;;;21.40;13.70;;;;;;;2.31;83.10;97921.79;106185;1316;138986;-65
2021/12/03 05:32:28;;;;;;;23.10;13.00;;;;;;;2.32;83.16;97929.27;105686;1316;23203;-65
2021/12/03 05:34:55;;;;;;;;;;;;;;;2.34;83.31;97933.44;106311;1316;22511;-65
2021/12/03 05:37:22;;;;;;;22.40;13.20;;;;;;;2.36;83.28;97937.06;106210;1316;124235;-65
2021/12/03 05:39:48;;;;;;;21.80;13.40;;;;;;;2.40;83.39;97942.95;106276;1315;22640;-65
2021/12/03 05:42:15;;;;;;;23.70;12.90;;;;;;;2.43;83.33;97946.77;106163;1315;138483;-65
2021/12/03 05:44:42;;;;;;;23.80;14.40;;;;;;;2.46;83.37;97950.67;106265;1315;22540;-65
2021/12/03 05:47:10;;;;;;;20.90;13.10;;;;;;;2.50;83.25;97950.63;106323;1315;22441;-65
2021/12/03 05:49:36;;;;;;;22.60;13.40;;;;;;;2.53;83.18;97945.30;106038;1315;139712;-65
2021/12/03 05:52:06;;;;;;;25.20;12.80;;;;;;;2.56;83.19;97943.32;106026;1315;23139;-66
2021/12/03 05:54:33;;;;;;;24.80;13.00;;;;;;;2.61;83.08;97931.92;105910;1316;139206;-65
2021/12/03 05:56:59;;;;;;;25.80;14.00;;;;;;;2.66;83.10;97916.89;106258;1316;22488;-65
2021/12/03 05:59:26;;;;;;;33.50;16.00;;;;;;;2.70;83.02;97918.09;106309;1316;22478;-66
2021/12/03 06:01:53;;;;;;;30.80;14.90;;;;;;;2.74;82.95;97930.30;106156;1316;138824;-66
2021/12/03 06:04:19;;;;;;;;;;;;;;;2.77;83.02;97945.63;106243;1316;22490;-66
2021/12/03 06:06:46;;;;;;;29.00;15.90;;;;;;;2.82;82.95;97959.95;106137;1315;124710;-66
2021/12/03 06:09:13;;;;;;;39.30;21.00;;;;;;;2.85;82.71;97972.92;106263;1315;22423;-66
2021/12/03 06:11:40;;;;;;;33.80;17.80;;;;;;;2.88;82.65;97994.36;106192;1316;139015;-66
2021/12/03 06:14:07;;;;;;;29.70;17.00;;;;;;;2.91;82.61;98011.88;106298;1315;23421;-66
2021/12/03 06:16:33;;;;;;;26.40;15.10;;;;;;;2.93;82.67;98029.30;106272;1316;22478;-66
2021/12/03 06:19:00;;;;;;;23.10;13.90;;;;;;;2.98;82.71;98028.84;106169;1315;138875;-66
2021/12/03 06:23:17;;;;;;;24.50;15.40;;;;;;;3.02;82.34;98038.81;99527;1348;546249;-64
2021/12/03 06:25:46;;;;;;;23.50;15.90;;;;;;;3.02;82.10;98036.27;104510;1329;137595;-64
2021/12/03 06:28:14;;;;;;;22.60;14.90;;;;;;;3.02;82.06;98033.48;105411;1326;22480;-65
2021/12/03 06:30:43;;;;;;;24.80;14.60;;;;;;;3.04;81.74;98042.31;105216;1326;137368;-63
2021/12/03 06:33:11;;;;;;;24.70;14.60;;;;;;;3.03;81.82;98048.27;105339;1325;22469;-65
2021/12/03 06:35:39;;;;;;;24.50;16.20;;;;;;;3.03;81.84;98056.09;105122;1325;139504;-65
2021/12/03 06:38:07;;;;;;;23.60;14.70;;;;;;;3.03;81.78;98050.77;105441;1322;205257;-65
2021/12/03 06:40:36;;;;;;;26.90;15.50;;;;;;;3.03;81.63;98062.06;105603;1322;22478;-65
2021/12/03 06:43:07;;;;;;;26.50;15.80;;;;;;;3.04;81.53;98060.48;105432;1326;138056;-65
2021/12/03 06:45:35;;;;;;;21.50;14.30;;;;;;;3.04;81.56;98068.30;105484;1326;22607;-65
2021/12/03 06:48:04;;;;;;;27.20;15.10;;;;;;;3.03;81.48;98065.98;105441;1325;138064;-65
2021/12/03 06:50:32;;;;;;;26.10;15.50;;;;;;;3.02;81.50;98061.09;105567;1327;22543;-65
2021/12/03 06:53:12;;;;;;;26.60;16.10;;;;;;;3.02;81.60;98066.95;105539;1325;23301;-65
2021/12/03 06:55:47;;;;;;;29.70;17.70;;;;;;;3.04;81.60;98076.33;105363;1325;138716;-65
2021/12/03 06:58:16;;;;;;;30.00;17.30;;;;;;;3.07;81.77;98073.36;105472;1325;22544;-65
2021/12/03 07:00:45;;;;;;;30.60;18.40;;;;;;;3.09;81.64;98078.08;105329;1325;137617;-64
2021/12/03 07:03:13;;;;;;;36.10;18.70;;;;;;;3.10;81.69;98078.21;105459;1326;24833;-65
2021/12/03 07:05:42;;;;;;;28.10;18.30;;;;;;;3.12;81.82;98058.98;105236;1325;138720;-65
2021/12/03 07:08:10;;;;;;;40.90;21.90;;;;;;;3.14;81.51;98048.24;104461;1332;22571;-65
2021/12/03 07:10:39;;;;;;;34.30;22.10;;;;;;;3.14;81.59;98041.69;105190;1325;23277;-65
2021/12/03 07:13:07;;;;;;;38.70;22.10;;;;;;;3.14;81.48;98043.30;105135;1328;138924;-65
2021/12/03 07:15:35;;;;;;;39.90;23.40;;;;;;;3.14;81.52;98043.14;105426;1325;22490;-65
2021/12/03 07:18:03;;;;;;;46.10;23.20;;;;;;;3.13;81.68;98043.33;105227;1325;143972;-65
2021/12/03 07:20:33;;;;;;;57.50;21.50;;;;;;;3.14;81.65;98036.95;105402;1325;22625;-65
2021/12/03 07:23:01;;;;;;;37.70;18.80;;;;;;;3.15;81.46;98033.35;105005;1325;138174;-65
2021/12/03 07:25:30;;;;;;;37.50;19.10;;;;;;;3.17;81.81;98035.25;105313;1326;22407;-65
2021/12/03 07:27:58;;;;;;;39.50;22.10;;;;;;;3.21;81.74;98039.39;105903;1319;144761;-65
2021/12/03 07:30:30;;;;;;;35.60;19.50;;;;;;;3.22;81.76;98042.48;105989;1319;22468;-65
2021/12/03 07:32:59;;;;;;;47.10;29.00;;;;;;;3.26;81.78;98055.80;105228;1319;140867;-65
2021/12/03 07:35:27;;;;;;;45.60;25.50;;;;;;;3.31;81.69;98059.05;105966;1319;22529;-66
2021/12/03 07:37:55;;;;;;;39.70;27.30;;;;;;;3.33;81.74;98063.95;106160;1319;22465;-65
2021/12/03 07:40:24;;;;;;;43.10;25.80;;;;;;;3.36;81.69;98065.55;106031;1319;138280;-65
2021/12/03 07:42:52;;;;;;;37.00;23.20;;;;;;;3.38;81.68;98062.69;106152;1319;23440;-66
2021/12/03 07:45:20;;;;;;;42.60;23.50;;;;;;;3.41;81.55;98063.27;106048;1319;138515;-60
2021/12/03 07:47:48;;;;;;;39.90;22.80;;;;;;;3.44;81.66;98065.92;106157;1319;23075;-61
2021/12/03 07:50:17;;;;;;;79.40;47.20;;;;;;;3.48;81.67;98067.94;106134;1319;22504;-61
2021/12/03 07:52:47;;;;;;;55.10;33.00;;;;;;;3.52;81.60;98067.85;106040;1319;137674;-61
2021/12/03 07:55:15;;;;;;;44.60;23.60;;;;;;;3.55;81.48;98071.29;106182;1318;22419;-60
2021/12/03 07:57:48;;;;;;;36.00;21.50;;;;;;;3.57;81.52;98073.79;106072;1319;138961;-60
2021/12/03 08:00:16;;;;;;;40.20;20.30;;;;;;;3.58;81.25;98073.42;106205;1319;22478;-60
2021/12/03 08:02:50;;;;;;;47.40;29.40;;;;;;;3.60;81.28;98076.73;106138;1320;138833;-59
2021/12/03 08:05:18;;;;;;;62.70;37.80;;;;;;;3.63;81.31;98072.45;106197;1319;22448;-59
2021/12/03 08:07:49;;;;;;;57.70;33.60;;;;;;;3.65;81.27;98065.59;105894;1319;22409;-60
2021/12/03 08:10:17;;;;;;;65.30;37.70;;;;;;;3.69;81.28;98060.58;106018;1319;139292;-60
2021/12/03 08:12:45;;;;;;;48.20;30.90;;;;;;;3.71;80.81;98065.15;102422;1319;22652;-59
2021/12/03 08:15:15;;;;;;;33.00;22.10;;;;;;;3.73;80.97;98079.13;105790;1316;138498;-63
2021/12/03 08:17:47;;;;;;;42.80;24.00;;;;;;;3.75;80.87;98082.96;106084;1319;23319;-65
2021/12/03 08:20:16;;;;;;;35.30;19.20;;;;;;;3.77;80.40;98079.10;106236;1316;23618;-66
2021/12/03 08:22:44;;;;;;;27.60;15.70;;;;;;;3.79;80.98;98078.83;106010;1316;138482;-65
2021/12/03 08:25:12;;;;;;;25.40;16.20;;;;;;;3.81;81.07;98078.48;106125;1319;23117;-65
2021/12/03 08:27:41;;;;;;;25.90;15.30;;;;;;;3.83;80.46;98069.02;106109;1319;137687;-65
2021/12/03 08:30:11;;;;;;;22.60;15.20;;;;;;;3.86;80.25;98060.71;106165;1319;22487;-65
2021/12/03 08:32:42;;;;;;;23.30;15.70;;;;;;;3.88;80.47;98038.59;106003;1319;137841;-63
2021/12/03 08:35:10;;;;;;;23.40;15.00;;;;;;;3.90;80.65;98034.27;106153;1319;22358;-65
2021/12/03 08:37:45;;;;;;;26.70;14.40;;;;;;;3.91;80.26;98026.48;106184;1319;22458;-65
2021/12/03 08:40:13;;;;;;;25.70;15.50;;;;;;;3.93;80.10;98025.52;106051;1319;137532;-65
2021/12/03 08:42:41;;;;;;;26.10;16.10;;;;;;;3.94;80.22;98025.70;106161;1319;23337;-65
2021/12/03 08:45:10;;;;;;;22.70;14.90;;;;;;;3.96;80.36;98023.20;106022;1318;140237;-66
2021/12/03 08:47:39;;;;;;;24.20;14.50;;;;;;;3.99;80.22;98040.11;106184;1319;22463;-66
2021/12/03 08:50:13;;;;;;;23.90;15.90;;;;;;;4.03;80.08;98064.80;106080;1319;22557;-66
2021/12/03 08:53:03;;;;;;;32.70;16.40;;;;;;;4.07;80.03;98078.83;106077;1318;137562;-66
2021/12/03 08:55:34;;;;;;;26.40;15.90;;;;;;;4.11;80.04;98074.80;105472;1319;22692;-66
2021/12/03 08:58:02;;;;;;;24.80;15.70;;;;;;;4.11;79.52;98062.46;106060;1322;138366;-67
2021/12/03 09:00:30;;;;;;;22.80;15.10;;;;;;;4.11;79.80;98071.46;106174;1319;22487;-67
2021/12/03 09:03:04;;;;;;;27.80;15.00;;;;;;;4.11;79.64;98074.25;105978;1318;138446;-67
2021/12/03 09:05:36;;;;;;;23.50;15.20;;;;;;;4.12;79.68;98078.05;105221;1319;22443;-67
2021/12/03 09:08:04;;;;;;;44.20;24.90;;;;;;;4.12;79.81;98072.34;106154;1319;22450;-67
2021/12/03 09:10:39;;;;;;;42.70;23.90;;;;;;;4.12;79.24;98061.83;106064;1319;137979;-67
2021/12/03 09:13:07;;;;;;;36.70;20.50;;;;;;;4.12;79.18;98074.64;106151;1318;22460;-65
2021/12/03 09:15:42;;;;;;;54.80;25.70;;;;;;;4.12;79.16;98088.98;106034;1319;138068;-65
2021/12/03 09:18:24;;;;;;;62.80;26.80;;;;;;;4.10;79.33;98084.44;106186;1319;22515;-66
2021/12/03 09:23:56;;;;;;;38.60;22.80;;;;;;;4.05;78.91;98092.13;106152;1319;23185;-65
2021/12/03 09:26:26;;;;;;;33.60;20.20;;;;;;;4.01;78.65;98097.38;106212;1318;23341;-66
2021/12/03 09:29:22;;;;;;;32.40;19.70;;;;;;;3.97;78.95;98095.48;106036;1319;138728;-66
2021/12/03 09:31:48;;;;;;;28.80;18.40;;;;;;;3.93;78.92;98086.53;106114;1319;23186;-66
2021/12/03 09:34:19;;;;;;;29.70;18.50;;;;;;;3.90;78.89;98093.41;106053;1319;137994;-66
2021/12/03 09:36:47;;;;;;;26.90;17.50;;;;;;;3.84;78.68;98095.81;105828;1319;22487;-66
2021/12/03 09:39:21;;;;;;;32.90;19.10;;;;;;;3.79;78.54;98091.52;105977;1319;138872;-65
2021/12/03 09:41:53;;;;;;;40.90;20.00;;;;;;;3.72;78.73;98086.71;106041;1319;22496;-65
2021/12/03 09:44:22;;;;;;;33.60;20.60;;;;;;;3.66;78.81;98090.88;106186;1320;22451;-65
2021/12/03 09:46:50;;;;;;;41.70;24.60;;;;;;;3.60;78.94;98108.52;106041;1316;137780;-65
2021/12/03 09:49:29;;;;;;;37.90;23.50;;;;;;;3.49;78.96;98114.70;106131;1319;22500;-66
2021/12/03 09:52:45;;;;;;;38.10;24.90;;;;;;;3.39;79.63;98109.34;106119;1316;137847;-65
2021/12/03 09:54:50;;;;;;;45.20;27.50;;;;;;;3.29;79.83;98101.15;106032;1319;22460;-65
2021/12/03 09:57:39;;;;;;;51.90;30.90;;;;;;;3.17;80.19;98104.58;106097;1319;139737;-66
2021/12/03 10:00:34;;;;;;;48.60;29.00;;;;;;;3.06;80.90;98112.52;106176;1319;22476;-65
2021/12/03 10:09:27;;;;;;;42.50;26.00;;;;;;;2.87;81.75;98093.08;106137;1319;24049;-64
2021/12/03 10:13:43;;;;;;;38.60;23.90;;;;;;;2.80;82.27;98086.36;105317;1318;23615;-65
2021/12/03 10:16:20;;;;;;;32.60;20.70;;;;;;;2.73;82.59;98086.85;105768;1322;138209;-65
2021/12/03 10:19:01;;;;;;;33.50;20.10;;;;;;;2.64;83.08;98089.31;106103;1319;22387;-65
2021/12/03 10:30:43;;;;;;;25.80;14.70;;;;;;;2.31;84.48;98128.33;106194;1316;22490;-65
2021/12/03 10:41:23;;;;;;;15.90;9.80;;;;;;;2.16;83.85;98167.58;106049;1319;138666;-65
2021/12/03 10:50:13;;;;;;;11.60;7.60;;;;;;;2.11;83.51;98159.26;105295;1328;22447;-65
2021/12/03 10:53:07;;;;;;;10.40;7.10;;;;;;;2.06;83.30;98157.23;105128;1327;138021;-65
2021/12/03 10:58:45;;;;;;;8.00;5.30;;;;;;;2.00;83.54;98163.65;105223;1325;138450;-66
2021/12/03 11:27:03;;;;;;;5.60;3.90;;;;;;;1.57;85.13;98226.30;106243;1316;23218;-64
2021/12/03 12:02:40;;;;;;;6.50;4.00;;;;;;;0.93;86.99;98311.23;106096;1316;22561;-65
2021/12/03 12:28:12;;;;;;;12.30;8.50;;;;;;;0.79;87.39;98353.64;106073;1316;139174;-60
2021/12/03 12:34:00;;;;;;;7.50;5.60;;;;;;;0.80;87.50;98348.35;106140;1316;22456;-60
2021/12/03 13:02:13;;;;;;;7.90;4.10;;;;;;;0.63;88.17;98372.83;105952;1319;22411;-65
2021/12/03 13:08:04;;;;;;;7.00;4.60;;;;;;;0.59;88.15;98391.23;105842;1319;22432;-65
2021/12/03 13:10:54;;;;;;;9.40;4.30;;;;;;;0.57;88.38;98386.81;105954;1319;22487;-65
2021/12/03 13:45:56;;;;;;;10.00;5.30;;;;;;;0.68;88.72;98479.66;106314;1316;23649;-65
2021/12/03 13:57:49;;;;;;;8.40;4.80;;;;;;;0.76;88.86;98527.51;103221;1316;25269;-64
2021/12/03 14:24:14;;;;;;;20.10;9.00;;;;;;;0.58;88.88;98541.35;106438;1313;23287;-65
2021/12/03 14:38:22;;;;;;;;;;;;;;;0.68;89.05;98571.17;106128;1313;462003;-65
2021/12/03 14:51:46;;;;;;;16.10;9.80;;;;;;;0.75;89.11;98590.63;106456;1313;22438;-66
2021/12/03 15:00:30;;;;;;;15.30;8.40;;;;;;;0.75;89.12;98606.83;106488;1313;22437;-66
2021/12/03 15:06:27;;;;;;;14.00;8.60;;;;;;;0.70;88.71;98610.30;106452;1313;22516;-65
2021/12/03 15:09:26;;;;;;;15.10;9.10;;;;;;;0.68;88.88;98612.70;106480;1318;22423;-66
2021/12/03 15:15:59;;;;;;;19.30;11.00;;;;;;;0.71;88.64;98619.86;106459;1313;22435;-65
2021/12/03 15:24:46;;;;;;;17.30;10.90;;;;;;;0.76;88.74;98617.67;106436;1316;22420;-66
2021/12/03 15:55:16;;;;;;;17.30;11.20;;;;;;;0.80;87.87;98670.77;105929;1319;22454;-60
2021/12/03 16:07:34;;;;;;;16.10;10.70;;;;;;;0.83;87.81;98683.06;105857;1322;22529;-66
2021/12/03 16:46:37;;;;;;;21.30;11.50;;;;;;;0.61;86.76;98746.22;106241;1313;138108;-59
2021/12/03 16:52:01;;;;;;;15.80;9.90;;;;;;;0.59;86.64;98757.27;106325;1316;22584;-60
2021/12/03 16:54:56;;;;;;;22.30;13.40;;;;;;;0.59;86.42;98761.53;106407;1313;137678;-60
2021/12/03 16:57:36;;;;;;;19.50;10.90;;;;;;;0.59;86.47;98767.86;106499;1313;22627;-60
2021/12/03 17:00:21;;;;;;;17.20;10.80;;;;;;;0.60;86.46;98769.69;106396;1313;138256;-59
2021/12/03 17:25:10;;;;;;;15.10;10.80;;;;;;;0.62;85.75;98800.23;106399;1313;138322;-60
2021/12/03 17:50:07;;;;;;;31.90;16.70;;;;;;;0.48;85.62;98819.54;106345;1313;22936;-66
2021/12/03 17:58:01;;;;;;;17.50;11.30;;;;;;;0.50;85.78;98821.67;105937;1313;24060;-65
2021/12/03 18:00:40;;;;;;;25.50;14.80;;;;;;;0.50;85.83;98830.63;106431;1313;138193;-66